Time;durP1;ratioP1;P1;durP2;ratioP2;P2;SDS_P1;SDS_P2;PMS_P1;PMS_P2;Temp;Humidity;BMP_temperature;BMP_pressure;BME280_temperature;BME280_humidity;BME280_pressure;Samples;Min_cycle;Max_cycle;Signal;HPM_P1;HPM_P2
2022/01/07 00:00:34;;;;;;;2.60;2.40;;;;;;;19.11;53.82;96928.59;10369461;28;20389;-22
2022/01/07 00:05:46;;;;;;;3.10;2.80;;;;;;;19.09;53.86;96930.28;10368894;28;20055;-24
2022/01/07 00:10:47;;;;;;;3.23;2.93;;;;;;;19.10;53.96;96934.50;10370531;28;20026;-22
2022/01/07 00:15:48;;;;;;;3.17;2.88;;;;;;;19.11;53.79;96933.66;10397595;28;20044;-23
2022/01/07 00:20:48;;;;;;;2.75;2.55;;;;;;;19.15;53.72;96930.25;10387864;28;20041;-22
2022/01/07 00:25:49;;;;;;;4.55;2.95;;;;;;;19.14;53.64;96915.88;10369374;28;20029;-22
2022/01/07 00:30:50;;;;;;;2.38;2.17;;;;;;;19.11;53.66;96919.28;10368711;28;20500;-22
2022/01/07 00:35:52;;;;;;;2.50;2.30;;;;;;;19.08;53.47;96904.03;10389063;28;20528;-23
2022/01/07 00:40:52;;;;;;;3.05;2.45;;;;;;;19.09;53.81;96904.91;10409209;28;20128;-22
2022/01/07 00:45:52;;;;;;;2.40;2.20;;;;;;;19.07;53.66;96901.50;10375691;28;20492;-22
2022/01/07 00:50:53;;;;;;;2.67;2.45;;;;;;;18.98;53.77;96881.19;10368297;28;20030;-22
2022/01/07 00:55:53;;;;;;;2.45;2.25;;;;;;;19.04;53.88;96876.13;10368064;28;20490;-22
2022/01/07 01:00:54;;;;;;;2.83;2.63;;;;;;;19.10;53.47;96874.44;10367742;28;20034;-23
2022/01/07 01:05:57;;;;;;;2.30;2.10;;;;;;;19.11;53.48;96870.22;10368137;28;20288;-22
2022/01/07 01:10:58;;;;;;;4.25;2.63;;;;;;;19.08;53.37;96857.53;10370498;28;20371;-22
2022/01/07 01:15:58;;;;;;;2.30;2.10;;;;;;;19.11;53.43;96866.00;10407551;28;20132;-22
2022/01/07 01:20:59;;;;;;;2.60;2.40;;;;;;;19.08;53.72;96882.91;10384501;28;20408;-22
2022/01/07 01:25:59;;;;;;;2.80;2.60;;;;;;;19.05;53.59;96873.59;10366870;28;20323;-22
2022/01/07 01:31:00;;;;;;;2.65;2.45;;;;;;;19.07;53.70;96855.81;10367254;28;20038;-22
2022/01/07 01:36:00;;;;;;;2.20;2.00;;;;;;;19.03;53.61;96849.06;10367009;28;20025;-22
2022/01/07 01:41:01;;;;;;;2.40;2.20;;;;;;;19.06;53.46;96838.91;10371322;28;20033;-23
2022/01/07 01:46:02;;;;;;;2.67;2.47;;;;;;;19.07;53.50;96838.06;10374757;28;20103;-23
2022/01/07 01:51:03;;;;;;;2.60;2.40;;;;;;;19.10;53.33;96838.06;10374805;28;20050;-22
2022/01/07 01:56:04;;;;;;;2.43;2.23;;;;;;;19.12;53.21;96844.84;10374533;28;20038;-23
2022/01/07 02:01:04;;;;;;;2.17;1.98;;;;;;;19.14;53.04;96852.44;10374073;28;20379;-23
2022/01/07 02:06:05;;;;;;;2.50;2.15;;;;;;;19.12;53.29;96849.06;10375012;28;20044;-23
2022/01/07 02:11:05;;;;;;;2.63;2.43;;;;;;;19.06;53.31;96856.66;10377526;28;20029;-22
2022/01/07 02:16:06;;;;;;;2.58;2.38;;;;;;;19.08;53.23;96855.00;10398519;28;20291;-23
2022/01/07 02:21:06;;;;;;;2.20;2.00;;;;;;;19.04;53.30;96836.38;10390844;28;20040;-22
2022/01/07 02:26:07;;;;;;;2.67;2.30;;;;;;;19.05;53.33;96839.75;10373259;28;20300;-23
2022/01/07 02:31:07;;;;;;;2.22;2.03;;;;;;;19.05;53.54;96834.69;10373363;28;20324;-22
2022/01/07 02:36:09;;;;;;;2.72;2.45;;;;;;;19.02;53.33;96832.97;10372849;28;20037;-23
2022/01/07 02:41:10;;;;;;;2.45;2.22;;;;;;;19.07;53.02;96831.28;10372464;28;20042;-23
2022/01/07 02:46:10;;;;;;;2.00;1.90;;;;;;;19.09;52.99;96838.91;10373109;28;20083;-23
2022/01/07 02:51:11;;;;;;;2.10;1.90;;;;;;;19.13;52.92;96843.13;10371174;28;20088;-22
2022/01/07 02:56:11;;;;;;;1.93;1.80;;;;;;;19.11;52.92;96853.31;10372290;28;20132;-22
2022/01/07 03:01:11;;;;;;;2.70;2.50;;;;;;;19.08;53.14;96852.47;10371810;28;20037;-22
2022/01/07 03:06:12;;;;;;;2.33;2.13;;;;;;;19.12;52.97;96856.66;10371403;28;20837;-23
2022/01/07 03:11:12;;;;;;;2.27;2.17;;;;;;;19.10;53.08;96855.84;10376082;28;20280;-22
2022/01/07 03:16:13;;;;;;;2.25;1.95;;;;;;;19.05;53.13;96847.38;10402222;28;20034;-22
2022/01/07 03:21:14;;;;;;;2.30;2.10;;;;;;;19.03;53.18;96854.13;10387218;28;20034;-22
2022/01/07 03:26:15;;;;;;;2.25;2.05;;;;;;;19.02;53.30;96852.44;10370149;28;20042;-22
2022/01/07 03:31:15;;;;;;;1.70;1.60;;;;;;;19.09;53.04;96846.53;10370930;28;20156;-24
2022/01/07 03:36:15;;;;;;;2.03;1.90;;;;;;;19.14;52.72;96845.69;10370649;28;20350;-22
2022/01/07 03:41:16;;;;;;;1.70;1.60;;;;;;;19.15;52.57;96849.91;10370404;28;20030;-23
2022/01/07 03:46:16;;;;;;;2.50;2.30;;;;;;;19.11;52.87;96838.06;10404725;28;20113;-22
2022/01/07 03:51:17;;;;;;;2.23;1.90;;;;;;;19.08;53.02;96832.16;10410311;28;20538;-22
2022/01/07 03:56:18;;;;;;;2.40;2.20;;;;;;;19.07;52.79;96831.28;10410987;28;20288;-24
2022/01/07 04:01:19;;;;;;;2.08;1.92;;;;;;;19.08;52.92;96833.00;10376984;28;20173;-22
2022/01/07 04:06:20;;;;;;;2.27;2.07;;;;;;;19.09;52.77;96839.75;10369469;28;20084;-23
2022/01/07 04:11:20;;;;;;;1.90;1.80;;;;;;;19.07;52.71;96841.44;10375255;28;20072;-22
2022/01/07 04:16:21;;;;;;;2.50;2.30;;;;;;;19.08;52.77;96827.09;10408022;28;20037;-22
2022/01/07 04:21:21;;;;;;;2.10;1.73;;;;;;;19.12;52.46;96828.75;10384177;28;20351;-22
2022/01/07 04:26:21;;;;;;;1.80;1.70;;;;;;;19.08;52.83;96843.13;10368325;28;20033;-22
2022/01/07 04:31:22;;;;;;;1.95;1.80;;;;;;;19.11;52.52;96835.53;10368766;28;20088;-22
2022/01/07 04:36:22;;;;;;;2.38;2.15;;;;;;;19.12;52.51;96846.53;10368980;28;20037;-23
2022/01/07 04:41:23;;;;;;;2.03;1.65;;;;;;;19.14;52.49;96847.34;10368352;28;20033;-23
2022/01/07 04:46:23;;;;;;;1.83;1.73;;;;;;;19.14;52.67;96847.34;10367874;28;20034;-24
2022/01/07 04:51:24;;;;;;;2.20;1.95;;;;;;;19.11;52.66;96839.75;10368022;28;20026;-23
2022/01/07 04:56:24;;;;;;;2.50;2.00;;;;;;;19.08;52.93;96829.63;10367982;28;20034;-24
2022/01/07 05:01:24;;;;;;;2.10;1.90;;;;;;;19.03;52.81;96833.84;10367211;28;20319;-22
2022/01/07 05:11:54;;;;;;;2.00;1.85;;;;;;;19.13;52.80;96833.84;10378014;28;20041;-22
2022/01/07 05:16:56;;;;;;;1.60;1.50;;;;;;;19.17;52.69;96827.06;10406953;28;20083;-22
2022/01/07 05:21:56;;;;;;;1.90;1.70;;;;;;;19.18;52.67;96831.28;10385514;28;20040;-22
2022/01/07 05:26:57;;;;;;;2.20;1.87;;;;;;;19.13;52.76;96831.31;10378888;28;20698;-23
2022/01/07 05:31:57;;;;;;;2.20;2.00;;;;;;;19.13;52.95;96833.84;10405356;28;20442;-22
2022/01/07 05:36:57;;;;;;;2.90;1.93;;;;;;;19.16;53.13;96831.28;10406232;28;20566;-22
2022/01/07 05:41:59;;;;;;;2.58;2.35;;;;;;;19.15;53.26;96828.75;10408938;28;20133;-22
2022/01/07 05:47:00;;;;;;;2.05;1.45;;;;;;;19.15;53.50;96823.66;10400513;28;20411;-22
2022/01/07 05:52:00;;;;;;;3.53;2.00;;;;;;;19.10;53.86;96828.75;10396660;28;20025;-22
2022/01/07 05:57:01;;;;;;;4.60;2.58;;;;;;;19.08;53.09;96830.44;10412419;28;20107;-22
2022/01/07 06:02:01;;;;;;;18.27;5.72;;;;;;;19.07;51.00;96820.28;10410378;28;20043;-22
2022/01/07 06:07:02;;;;;;;11.38;5.05;;;;;;;19.09;49.44;96813.53;10406007;28;20452;-22
2022/01/07 06:12:03;;;;;;;14.30;4.68;;;;;;;19.06;50.55;96818.59;10409843;28;20022;-23
2022/01/07 06:17:03;;;;;;;12.43;5.05;;;;;;;19.11;49.39;96811.84;10406878;28;20478;-23
2022/01/07 06:22:04;;;;;;;14.88;5.85;;;;;;;19.15;50.56;96798.28;10381303;28;20046;-22
2022/01/07 06:27:05;;;;;;;15.23;5.78;;;;;;;19.15;50.78;96813.50;10373329;28;20443;-22
2022/01/07 06:32:06;;;;;;;16.63;4.82;;;;;;;19.16;51.01;96822.84;10373138;28;20030;-22
2022/01/07 06:37:07;;;;;;;10.60;4.63;;;;;;;19.12;51.42;96818.59;10373371;28;20535;-22
2022/01/07 06:42:08;;;;;;;11.57;5.13;;;;;;;19.14;51.67;96804.22;10372609;28;20113;-23
2022/01/07 06:47:08;;;;;;;12.57;5.32;;;;;;;19.10;51.69;96800.00;10373283;28;20288;-21
2022/01/07 06:52:08;;;;;;;9.73;4.25;;;;;;;19.15;51.78;96794.06;10372581;28;20068;-22
2022/01/07 06:57:09;;;;;;;15.40;4.40;;;;;;;19.17;51.95;96789.00;10372744;28;20037;-22
2022/01/07 07:02:09;;;;;;;9.50;4.77;;;;;;;19.11;52.08;96787.31;10371923;28;20699;-22
2022/01/07 07:07:10;;;;;;;7.07;4.10;;;;;;;19.10;52.00;96784.78;10372263;28;20301;-22
2022/01/07 07:12:12;;;;;;;8.05;4.30;;;;;;;19.04;52.42;96782.25;10377457;28;20116;-22
2022/01/07 07:17:14;;;;;;;6.57;3.70;;;;;;;19.02;52.51;96783.94;10405554;28;20057;-23
2022/01/07 07:22:14;;;;;;;9.57;3.95;;;;;;;19.02;52.41;96783.94;10379480;28;20026;-22
2022/01/07 07:27:14;;;;;;;7.50;3.53;;;;;;;19.03;52.61;96783.94;10371631;28;20060;-22
2022/01/07 07:32:21;;;;;;;8.57;3.93;;;;;;;18.99;52.76;96761.13;10370455;28;20424;-22
2022/01/07 07:37:21;;;;;;;6.32;3.95;;;;;;;19.02;52.63;96761.09;10370866;28;20037;-22
2022/01/07 07:42:22;;;;;;;7.97;3.40;;;;;;;19.08;52.60;96763.66;10370487;28;20030;-22
2022/01/07 07:47:26;;;;;;;6.20;3.67;;;;;;;19.00;52.84;96743.34;10368993;28;20043;-22
2022/01/07 07:52:26;;;;;;;5.88;3.38;;;;;;;19.07;52.64;96756.84;10369354;28;20586;-22
2022/01/07 07:57:26;;;;;;;7.43;3.47;;;;;;;19.02;52.65;96764.47;10369840;28;20030;-22
2022/01/07 08:02:30;;;;;;;6.37;3.73;;;;;;;19.02;52.65;96761.94;10369546;28;20783;-22
2022/01/07 08:07:30;;;;;;;7.32;3.15;;;;;;;19.01;52.60;96761.97;10369017;28;20285;-23
2022/01/07 08:12:54;;;;;;;7.03;3.50;;;;;;;19.02;52.75;96746.72;10376994;28;20550;-22
2022/01/07 08:17:51;;;;;;;5.45;3.38;;;;;;;19.02;52.68;96748.41;10408016;28;20091;-22
2022/01/07 08:22:52;;;;;;;4.97;2.97;;;;;;;19.00;52.77;96733.19;10372261;28;20053;-23
2022/01/07 08:27:56;;;;;;;5.82;2.92;;;;;;;19.00;52.92;96743.34;10368836;28;20077;-23
2022/01/07 08:38:15;;;;;;;4.50;3.00;;;;;;;19.11;52.59;96748.41;10369260;28;20032;-22
2022/01/07 08:43:16;;;;;;;5.55;2.97;;;;;;;19.07;52.60;96734.00;10368540;28;20032;-22
2022/01/07 08:48:16;;;;;;;4.87;2.80;;;;;;;19.01;52.97;96718.81;10368131;28;20049;-23
2022/01/07 08:53:16;;;;;;;5.07;3.00;;;;;;;19.00;52.84;96723.03;10368832;28;20084;-22
2022/01/07 08:58:17;;;;;;;3.37;2.60;;;;;;;18.99;53.01;96720.53;10368374;28;20033;-22
2022/01/07 09:03:18;;;;;;;3.85;2.60;;;;;;;18.99;52.92;96720.53;10367617;28;20293;-23
2022/01/07 09:08:18;;;;;;;4.10;2.63;;;;;;;19.02;52.92;96725.59;10368303;28;20034;-22
2022/01/07 09:13:20;;;;;;;3.92;2.38;;;;;;;18.99;53.10;96731.50;10379965;28;20022;-23
2022/01/07 09:18:21;;;;;;;4.47;2.92;;;;;;;18.98;53.01;96728.97;10407485;28;20037;-22
2022/01/07 09:23:21;;;;;;;4.78;2.70;;;;;;;19.04;52.85;96719.66;10367786;28;20038;-23
2022/01/07 09:28:22;;;;;;;3.75;2.40;;;;;;;19.10;52.62;96719.63;10367809;28;20033;-22
2022/01/07 09:33:22;;;;;;;3.38;2.58;;;;;;;19.07;52.76;96709.50;10366494;28;20046;-21
2022/01/07 09:38:22;;;;;;;3.10;2.03;;;;;;;19.08;52.84;96715.44;10367222;28;20045;-22
2022/01/07 09:43:23;;;;;;;5.30;2.38;;;;;;;19.00;53.04;96712.88;10367031;28;20049;-22
2022/01/07 09:48:23;;;;;;;3.30;2.55;;;;;;;19.01;52.67;96722.19;10367066;28;20461;-22
2022/01/07 09:53:26;;;;;;;4.50;2.57;;;;;;;19.00;52.94;96712.06;10367179;28;20445;-22
2022/01/07 09:58:27;;;;;;;2.70;1.77;;;;;;;19.00;53.00;96705.28;10366855;28;20033;-23
2022/01/07 10:03:36;;;;;;;4.60;2.60;;;;;;;19.02;52.81;96715.44;10373499;28;20463;-23
2022/01/07 10:08:36;;;;;;;2.67;2.28;;;;;;;19.05;52.65;96708.66;10374100;28;20043;-22
2022/01/07 10:13:36;;;;;;;3.27;2.20;;;;;;;19.09;52.81;96709.50;10393533;28;20412;-23
2022/01/07 10:18:37;;;;;;;3.47;2.50;;;;;;;19.15;52.49;96695.09;10412159;28;20448;-22
2022/01/07 10:23:38;;;;;;;3.35;2.25;;;;;;;19.11;52.60;96706.13;10373394;28;20292;-22
2022/01/07 10:28:39;;;;;;;1.98;1.77;;;;;;;19.03;52.88;96706.97;10373657;28;20029;-23
2022/01/07 10:33:41;;;;;;;2.30;1.80;;;;;;;19.03;52.82;96715.44;10373561;28;20399;-23
2022/01/07 10:38:50;;;;;;;3.58;2.25;;;;;;;19.05;52.81;96717.94;10374850;28;20040;-23
2022/01/07 10:43:52;;;;;;;2.83;1.80;;;;;;;19.05;52.82;96712.88;10373347;28;20034;-22
2022/01/07 10:49:01;;;;;;;2.63;1.83;;;;;;;19.06;52.84;96717.09;10374420;28;20062;-22
2022/01/07 10:54:05;;;;;;;2.60;2.22;;;;;;;19.05;52.70;96707.81;10373577;28;20038;-22
2022/01/07 10:59:12;;;;;;;4.50;2.42;;;;;;;19.08;52.70;96701.03;10373297;28;20042;-24
2022/01/07 11:04:26;;;;;;;2.65;2.08;;;;;;;19.16;52.48;96690.88;10374345;28;20519;-23
2022/01/07 11:09:26;;;;;;;3.22;2.22;;;;;;;19.15;52.38;96690.03;10373483;28;20459;-23
2022/01/07 11:14:29;;;;;;;2.73;2.10;;;;;;;19.04;52.55;96675.66;10401975;28;20041;-23
2022/01/07 11:19:42;;;;;;;2.00;1.80;;;;;;;19.10;52.69;96673.13;10403495;28;20300;-22
2022/01/07 11:25:06;;;;;;;2.75;1.50;;;;;;;19.07;52.77;96673.13;10373049;28;20497;-24
2022/01/07 11:30:07;;;;;;;3.55;2.03;;;;;;;19.09;52.81;96668.91;10372703;28;20033;-23
2022/01/07 11:35:16;;;;;;;2.97;1.77;;;;;;;19.11;52.75;96662.13;10372631;28;20092;-23
2022/01/07 11:40:29;;;;;;;1.92;1.60;;;;;;;19.12;52.54;96646.03;10370677;28;20042;-22
2022/01/07 11:45:33;;;;;;;2.38;1.80;;;;;;;19.09;52.66;96635.91;10371299;28;20042;-22
2022/01/07 11:51:04;;;;;;;4.00;1.50;;;;;;;19.09;52.52;96635.91;10370521;28;20088;-22
2022/01/07 11:56:06;;;;;;;1.63;1.50;;;;;;;19.14;52.59;96654.47;10369036;28;20061;-22
2022/01/07 12:01:21;;;;;;;2.20;2.00;;;;;;;19.17;52.45;96659.56;10370050;28;20481;-24
2022/01/07 12:06:24;;;;;;;1.80;1.40;;;;;;;19.15;52.43;96646.00;10369459;28;20038;-22
2022/01/07 12:11:27;;;;;;;2.90;2.00;;;;;;;19.10;52.61;96643.50;10375911;28;20036;-22
2022/01/07 12:16:30;;;;;;;1.50;1.25;;;;;;;19.09;52.48;96635.91;10398883;28;20038;-22
2022/01/07 12:21:31;;;;;;;2.25;1.65;;;;;;;19.10;52.56;96617.28;10383217;28;20041;-22
2022/01/07 12:26:32;;;;;;;2.07;1.47;;;;;;;19.10;52.60;96614.75;10369254;28;20029;-23
2022/01/07 12:31:32;;;;;;;2.40;1.70;;;;;;;19.07;52.73;96607.13;10369693;28;20034;-22
2022/01/07 12:36:36;;;;;;;2.30;1.60;;;;;;;19.09;52.83;96587.69;10368769;28;20037;-22
2022/01/07 12:41:36;;;;;;;2.20;1.40;;;;;;;19.05;52.81;96591.94;10369081;28;20293;-22
2022/01/07 12:46:38;;;;;;;2.87;1.70;;;;;;;19.08;52.55;96584.31;10368817;28;20049;-21
2022/01/07 12:51:38;;;;;;;1.83;1.55;;;;;;;19.12;52.64;96580.06;10368538;28;20044;-22
2022/01/07 12:56:40;;;;;;;1.77;1.60;;;;;;;19.06;52.73;96575.00;10368068;28;20033;-22
2022/01/07 13:01:43;;;;;;;2.13;1.25;;;;;;;19.06;52.82;96569.94;10408468;28;20079;-22
2022/01/07 13:06:46;;;;;;;3.72;1.65;;;;;;;18.89;52.82;96551.41;10380199;28;20040;-22
2022/01/07 13:11:55;;;;;;;1.83;1.60;;;;;;;18.95;52.92;96559.00;10376903;28;20060;-22
2022/01/07 13:16:58;;;;;;;1.52;1.42;;;;;;;18.97;52.97;96575.91;10405331;28;20040;-22
2022/01/07 13:21:58;;;;;;;1.50;1.30;;;;;;;18.90;53.07;96564.09;10377589;28;20026;-23
2022/01/07 13:27:04;;;;;;;1.83;1.55;;;;;;;18.96;52.93;96579.28;10367806;28;20045;-22
2022/01/07 13:32:07;;;;;;;1.33;1.23;;;;;;;19.01;52.81;96574.19;10367190;28;20109;-23
2022/01/07 13:37:12;;;;;;;2.20;1.30;;;;;;;19.04;52.58;96572.50;10372287;28;20029;-24
2022/01/07 13:42:19;;;;;;;2.13;1.50;;;;;;;19.03;52.81;96575.03;10375553;28;20124;-22
2022/01/07 13:47:38;;;;;;;1.80;1.33;;;;;;;18.96;52.70;96563.22;10374798;28;20044;-22
2022/01/07 13:52:39;;;;;;;1.40;1.25;;;;;;;18.99;52.71;96568.28;10375559;28;20038;-22
2022/01/07 13:57:39;;;;;;;1.48;1.20;;;;;;;18.99;53.01;96565.75;10375528;28;20033;-22
2022/01/07 14:02:46;;;;;;;1.50;1.33;;;;;;;18.98;52.69;96576.72;10374179;28;20042;-23
2022/01/07 14:07:50;;;;;;;1.90;1.52;;;;;;;18.94;52.96;96575.06;10374727;28;20029;-23
2022/01/07 14:12:59;;;;;;;1.70;1.45;;;;;;;19.01;52.67;96569.13;10384437;28;20034;-23
2022/01/07 14:18:10;;;;;;;1.52;1.25;;;;;;;18.98;52.93;96571.66;10413019;28;20045;-22
2022/01/07 14:23:16;;;;;;;1.77;1.63;;;;;;;19.00;52.79;96569.97;10373302;28;20171;-22
2022/01/07 14:28:20;;;;;;;1.50;1.10;;;;;;;18.99;52.72;96570.84;10373989;28;20080;-23
2022/01/07 14:33:20;;;;;;;1.35;1.20;;;;;;;18.97;52.50;96568.28;10373318;28;20125;-23
2022/01/07 14:38:21;;;;;;;1.38;1.25;;;;;;;19.02;52.82;96563.19;10373910;28;20572;-23
2022/01/07 14:43:21;;;;;;;2.47;1.30;;;;;;;19.00;52.79;96565.72;10372952;28;20065;-22
2022/01/07 14:48:24;;;;;;;1.77;1.33;;;;;;;19.01;52.61;96567.41;10372767;28;20069;-23
2022/01/07 14:53:25;;;;;;;1.88;1.60;;;;;;;19.00;52.82;96555.59;10373128;28;20045;-22
2022/01/07 14:58:25;;;;;;;1.70;1.17;;;;;;;18.93;52.81;96546.31;10372191;28;20429;-23
2022/01/07 15:03:25;;;;;;;1.63;1.20;;;;;;;18.85;51.92;96560.72;10372033;28;20054;-22
2022/01/07 15:08:26;;;;;;;2.50;1.20;;;;;;;18.86;52.82;96561.56;10409759;28;20094;-22
2022/01/07 15:13:26;;;;;;;1.42;1.33;;;;;;;18.80;52.61;96549.75;10427223;28;20037;-22
2022/01/07 15:18:28;;;;;;;3.40;1.27;;;;;;;18.84;50.38;96564.09;10425840;28;20079;-22
2022/01/07 15:23:29;;;;;;;1.25;1.15;;;;;;;18.86;51.65;96569.19;10428295;28;20159;-22
2022/01/07 15:28:29;;;;;;;2.83;1.00;;;;;;;18.97;51.72;96569.97;10411607;28;20258;-22
2022/01/07 15:33:30;;;;;;;1.02;1.00;;;;;;;18.98;52.05;96582.66;10432355;28;20094;-22
2022/01/07 15:38:32;;;;;;;2.33;1.70;;;;;;;19.00;51.98;96580.13;10422294;28;20037;-22
2022/01/07 15:43:33;;;;;;;2.45;1.48;;;;;;;19.00;51.93;96568.28;10401226;28;20065;-23
2022/01/07 15:48:33;;;;;;;2.72;1.70;;;;;;;18.98;52.07;96566.59;10382045;28;20065;-22
2022/01/07 15:53:33;;;;;;;3.00;1.90;;;;;;;18.92;52.46;96559.84;10413448;28;20502;-23
2022/01/07 15:58:34;;;;;;;10.60;3.60;;;;;;;18.89;52.32;96562.41;10427373;28;20069;-23
2022/01/07 16:03:36;;;;;;;9.40;5.60;;;;;;;18.85;52.79;96557.34;10392978;28;20069;-22
2022/01/07 16:08:37;;;;;;;13.77;8.13;;;;;;;18.83;52.90;96561.59;10390080;28;20121;-23
2022/01/07 16:13:39;;;;;;;16.45;8.35;;;;;;;18.91;52.82;96568.31;10403950;28;20025;-22
2022/01/07 16:18:41;;;;;;;15.40;9.77;;;;;;;18.94;52.58;96573.41;10378910;28;20053;-23
2022/01/07 16:23:42;;;;;;;17.73;10.52;;;;;;;18.82;52.30;96565.00;10366643;28;20060;-25
2022/01/07 16:28:43;;;;;;;17.25;9.60;;;;;;;18.99;52.47;96588.59;10397403;28;20036;-22
2022/01/07 16:33:43;;;;;;;17.33;10.68;;;;;;;19.00;52.69;96600.44;10394170;28;20034;-22
2022/01/07 16:38:46;;;;;;;15.98;10.85;;;;;;;18.96;52.41;96593.66;10399820;28;20044;-23
2022/01/07 16:43:47;;;;;;;20.25;13.23;;;;;;;18.94;53.22;96590.28;10405853;28;20045;-22
2022/01/07 16:48:47;;;;;;;21.20;12.48;;;;;;;18.98;53.14;96594.50;10398753;28;20403;-23
2022/01/07 16:53:48;;;;;;;18.47;12.60;;;;;;;18.99;53.02;96576.75;10367065;28;20033;-22
2022/01/07 16:58:48;;;;;;;18.63;11.88;;;;;;;19.00;53.20;96590.28;10376597;28;20033;-22
2022/01/07 17:03:48;;;;;;;23.03;12.10;;;;;;;19.01;53.20;96597.88;10403305;28;20463;-23
2022/01/07 17:08:49;;;;;;;16.47;11.70;;;;;;;18.98;53.29;96599.56;10366576;28;20507;-22
2022/01/07 17:13:50;;;;;;;19.80;11.10;;;;;;;18.99;53.98;96597.03;10378969;28;20029;-22
2022/01/07 17:18:51;;;;;;;18.58;12.35;;;;;;;18.84;53.55;96571.72;10402487;28;20735;-23
2022/01/07 17:23:51;;;;;;;18.45;10.38;;;;;;;19.01;53.31;96586.88;10330629;28;1051221;-23
2022/01/07 17:28:52;;;;;;;16.48;10.52;;;;;;;19.00;53.33;96587.75;10367954;28;20471;-22
2022/01/07 17:33:52;;;;;;;16.37;9.90;;;;;;;19.02;53.20;96593.66;10367845;28;20420;-22
2022/01/07 17:38:53;;;;;;;14.70;9.43;;;;;;;19.00;53.09;96606.31;10366651;28;20339;-23
2022/01/07 17:43:54;;;;;;;15.17;10.37;;;;;;;19.03;53.19;96628.31;10396500;28;20111;-22
2022/01/07 17:48:54;;;;;;;13.93;9.68;;;;;;;19.00;53.37;96639.31;10392589;28;20796;-22
2022/01/07 17:53:56;;;;;;;17.23;10.07;;;;;;;19.01;53.19;96645.25;10395852;28;20150;-23
2022/01/07 17:58:56;;;;;;;15.38;9.77;;;;;;;19.01;53.38;96652.84;10390522;28;20548;-23
2022/01/07 18:03:57;;;;;;;13.27;9.93;;;;;;;18.99;53.40;96664.72;10396906;28;20141;-23
2022/01/07 18:08:57;;;;;;;15.27;9.03;;;;;;;18.99;53.30;96669.78;10393051;28;20087;-22
2022/01/07 18:13:57;;;;;;;15.40;9.83;;;;;;;18.96;53.38;96670.63;10397306;28;20040;-22
2022/01/07 18:18:58;;;;;;;12.20;8.90;;;;;;;18.98;53.30;96657.91;10405374;28;20040;-22
2022/01/07 18:23:58;;;;;;;14.13;9.73;;;;;;;18.95;53.57;96650.31;10409075;28;20349;-22
2022/01/07 18:28:59;;;;;;;14.73;9.07;;;;;;;18.94;53.72;96661.31;10399874;28;20026;-22
2022/01/07 18:33:59;;;;;;;16.63;9.13;;;;;;;18.96;53.73;96665.56;10413156;28;20323;-23
2022/01/07 18:39:00;;;;;;;14.18;9.20;;;;;;;18.95;53.75;96670.63;10407404;28;20510;-23
2022/01/07 18:44:00;;;;;;;17.20;9.48;;;;;;;18.97;53.58;96687.53;10397804;28;20038;-23
2022/01/07 18:49:01;;;;;;;16.10;9.07;;;;;;;19.01;53.67;96652.84;10378360;28;20033;-22
2022/01/07 18:54:01;;;;;;;14.37;8.47;;;;;;;18.98;54.56;96647.78;10396069;28;20480;-23
2022/01/07 18:59:03;;;;;;;20.60;9.32;;;;;;;18.98;54.41;96627.47;10398338;28;20292;-23
2022/01/07 19:04:03;;;;;;;17.02;9.90;;;;;;;18.94;54.84;96628.34;10397027;28;20430;-23
2022/01/07 19:09:05;;;;;;;17.98;8.60;;;;;;;18.96;54.81;96619.03;10407568;28;20044;-23
2022/01/07 19:14:06;;;;;;;15.80;9.90;;;;;;;18.98;54.43;96619.88;10391855;28;20094;-22
2022/01/07 19:19:07;;;;;;;15.48;8.57;;;;;;;18.93;54.65;96640.16;10403505;28;20106;-23
2022/01/07 19:24:07;;;;;;;14.80;8.77;;;;;;;18.95;54.57;96655.41;10407448;28;20124;-22
2022/01/07 19:29:07;;;;;;;16.20;9.43;;;;;;;18.94;54.58;96646.09;10396594;28;20485;-23
2022/01/07 19:34:08;;;;;;;13.25;8.73;;;;;;;18.88;54.63;96620.75;10366520;28;20290;-22
2022/01/07 19:39:08;;;;;;;14.93;8.60;;;;;;;18.93;54.65;96613.97;10384867;28;20278;-24
2022/01/07 19:44:11;;;;;;;14.23;8.75;;;;;;;18.94;54.59;96602.97;10380124;28;20042;-22
2022/01/07 19:49:11;;;;;;;13.10;8.68;;;;;;;18.96;54.70;96607.19;10408008;28;20127;-22
2022/01/07 19:54:12;;;;;;;15.75;8.98;;;;;;;18.94;54.53;96608.06;10416030;28;20136;-22
2022/01/07 19:59:12;;;;;;;15.68;8.75;;;;;;;18.95;54.57;96602.13;10398825;28;20523;-23
2022/01/07 20:04:14;;;;;;;17.70;8.70;;;;;;;18.84;54.48;96584.41;10400254;28;20042;-22
2022/01/07 20:09:14;;;;;;;14.35;9.60;;;;;;;18.93;54.45;96589.44;10395723;28;20072;-22
2022/01/07 20:14:14;;;;;;;11.97;7.63;;;;;;;19.00;54.33;96572.53;10394465;28;20128;-22
2022/01/07 20:19:15;;;;;;;11.40;7.63;;;;;;;18.94;54.41;96572.53;10397573;28;20427;-23
2022/01/07 20:24:16;;;;;;;14.70;8.17;;;;;;;18.94;54.57;96564.94;10400330;28;20053;-23
2022/01/07 20:29:16;;;;;;;12.93;8.48;;;;;;;18.97;54.55;96567.44;10392936;28;20472;-23
2022/01/07 20:34:16;;;;;;;18.17;8.55;;;;;;;18.90;54.40;96568.31;10377859;28;20037;-22
2022/01/07 20:39:17;;;;;;;14.20;7.90;;;;;;;18.91;54.50;96559.88;10406589;28;20488;-23
2022/01/07 20:44:18;;;;;;;10.83;7.47;;;;;;;18.98;54.27;96541.22;10391279;28;20328;-23
2022/01/07 20:49:18;;;;;;;12.60;7.80;;;;;;;19.02;54.14;96536.13;10400379;28;20036;-23
2022/01/07 20:54:20;;;;;;;12.73;7.70;;;;;;;18.97;53.97;96516.69;10403964;28;20029;-23
2022/01/07 20:59:20;;;;;;;10.63;7.85;;;;;;;19.02;53.96;96527.69;10398503;28;20440;-22
2022/01/07 21:04:22;;;;;;;11.23;7.53;;;;;;;19.01;53.88;96519.22;10395859;28;20133;-23
2022/01/07 21:09:23;;;;;;;12.60;7.82;;;;;;;18.99;53.87;96517.56;10363250;28;20030;-22
2022/01/07 21:14:23;;;;;;;9.38;6.78;;;;;;;19.01;53.70;96506.53;10374060;28;20041;-21
2022/01/07 21:19:24;;;;;;;10.70;7.93;;;;;;;19.03;53.76;96488.75;10395671;28;20108;-24
2022/01/07 21:24:24;;;;;;;7.60;6.23;;;;;;;19.01;53.62;96473.53;10363533;28;20042;-24
2022/01/07 21:29:26;;;;;;;12.25;7.40;;;;;;;19.03;53.63;96463.41;10374649;28;20496;-22
2022/01/07 21:34:26;;;;;;;9.50;6.35;;;;;;;19.01;53.86;96454.97;10363563;28;20473;-22
2022/01/07 21:39:27;;;;;;;9.83;6.47;;;;;;;19.01;53.54;96443.09;10363309;28;20038;-23
2022/01/07 21:44:27;;;;;;;8.07;6.38;;;;;;;18.99;53.61;96433.84;10378840;28;20037;-24
2022/01/07 21:49:28;;;;;;;8.07;5.90;;;;;;;19.02;53.38;96421.13;10402933;28;20040;-23
2022/01/07 21:54:28;;;;;;;8.32;6.13;;;;;;;19.01;53.61;96409.28;10412714;28;20033;-24
2022/01/07 21:59:28;;;;;;;9.47;7.37;;;;;;;19.01;53.60;96419.44;10410144;28;20227;-22
2022/01/07 22:04:29;;;;;;;7.17;5.40;;;;;;;18.97;53.40;96412.69;10402308;28;20033;-24
2022/01/07 22:09:29;;;;;;;9.07;6.22;;;;;;;19.00;53.45;96402.53;10408919;28;20403;-23
2022/01/07 22:14:31;;;;;;;8.77;6.13;;;;;;;18.97;53.51;96379.72;10409577;28;20087;-23
2022/01/07 22:19:32;;;;;;;10.30;5.63;;;;;;;18.98;53.48;96379.72;10395649;28;20096;-23
2022/01/07 22:24:33;;;;;;;7.63;5.75;;;;;;;19.00;53.33;96367.03;10406461;28;20042;-22
2022/01/07 22:29:34;;;;;;;8.07;5.82;;;;;;;18.97;53.50;96367.03;10409033;28;20037;-23
2022/01/07 22:34:34;;;;;;;7.72;5.80;;;;;;;18.97;53.42;96351.78;10408713;28;20057;-22
2022/01/07 22:39:37;;;;;;;8.80;5.65;;;;;;;18.94;53.33;96341.69;10406961;28;20030;-23
2022/01/07 22:44:37;;;;;;;9.70;5.75;;;;;;;18.92;53.44;96330.72;10390708;28;20025;-23
2022/01/07 22:49:38;;;;;;;7.22;5.57;;;;;;;18.96;53.50;96320.53;10393577;28;20037;-23
2022/01/07 22:54:38;;;;;;;10.90;5.07;;;;;;;18.98;53.76;96312.88;10372211;28;20030;-22
2022/01/07 22:59:39;;;;;;;10.57;5.40;;;;;;;18.98;53.84;96312.88;10388614;28;20285;-22
2022/01/07 23:04:39;;;;;;;9.88;5.72;;;;;;;18.97;53.95;96298.53;10371196;28;20594;-22
2022/01/07 23:09:40;;;;;;;8.73;6.03;;;;;;;18.97;53.84;96290.91;10372180;28;20400;-22
2022/01/07 23:14:40;;;;;;;8.73;4.63;;;;;;;18.95;53.80;96273.19;10384132;28;20030;-22
2022/01/07 23:19:41;;;;;;;9.97;6.47;;;;;;;18.92;53.73;96252.09;10401583;28;20037;-22
2022/01/07 23:24:41;;;;;;;7.97;5.17;;;;;;;18.95;53.73;96231.75;10371205;28;20061;-22